sensor_id;sensor_type;location;lat;lon;timestamp;pressure;altitude;pressure_sealevel;temperature;humidity
65190;BME280;51777;53.570;9.984;2023-02-13T00:00:00;103563.00;;;7.54;100.00
65190;BME280;51777;53.570;9.984;2023-02-13T00:02:26;103555.50;;;7.48;100.00
65190;BME280;51777;53.570;9.984;2023-02-13T00:04:51;103562.47;;;7.46;100.00
65190;BME280;51777;53.570;9.984;2023-02-13T00:07:17;103559.19;;;7.41;100.00
65190;BME280;51777;53.570;9.984;2023-02-13T00:09:42;103562.59;;;7.42;100.00
65190;BME280;51777;53.570;9.984;2023-02-13T00:12:08;103558.22;;;7.45;100.00
65190;BME280;51777;53.570;9.984;2023-02-13T00:14:37;103561.44;;;7.50;100.00
65190;BME280;51777;53.570;9.984;2023-02-13T00:17:03;103558.22;;;7.45;100.00
65190;BME280;51777;53.570;9.984;2023-02-13T00:19:29;103556.63;;;7.41;100.00
65190;BME280;51777;53.570;9.984;2023-02-13T00:21:55;103557.41;;;7.43;100.00
65190;BME280;51777;53.570;9.984;2023-02-13T00:24:20;103559.00;;;7.47;100.00
65190;BME280;51777;53.570;9.984;2023-02-13T00:26:46;103555.34;;;7.53;100.00
65190;BME280;51777;53.570;9.984;2023-02-13T00:29:11;103553.59;;;7.53;100.00
65190;BME280;51777;53.570;9.984;2023-02-13T00:31:36;103551.03;;;7.53;100.00
65190;BME280;51777;53.570;9.984;2023-02-13T00:34:02;103544.53;;;7.43;100.00
65190;BME280;51777;53.570;9.984;2023-02-13T00:36:27;103549.69;;;7.43;100.00
65190;BME280;51777;53.570;9.984;2023-02-13T00:38:53;103547.91;;;7.45;100.00
65190;BME280;51777;53.570;9.984;2023-02-13T00:41:19;103549.69;;;7.43;100.00
65190;BME280;51777;53.570;9.984;2023-02-13T00:43:45;103550.56;;;7.42;100.00
65190;BME280;51777;53.570;9.984;2023-02-13T00:46:11;103550.63;;;7.41;100.00
65190;BME280;51777;53.570;9.984;2023-02-13T00:48:37;103543.88;;;7.38;100.00
65190;BME280;51777;53.570;9.984;2023-02-13T00:51:03;103550.56;;;7.42;100.00
65190;BME280;51777;53.570;9.984;2023-02-13T00:53:29;103552.38;;;7.40;100.00
65190;BME280;51777;53.570;9.984;2023-02-13T00:55:54;103554.34;;;7.33;100.00
65190;BME280;51777;53.570;9.984;2023-02-13T00:58:20;103549.91;;;7.37;100.00
65190;BME280;51777;53.570;9.984;2023-02-13T01:00:46;103547.09;;;7.43;100.00
65190;BME280;51777;53.570;9.984;2023-02-13T01:03:15;103554.94;;;7.40;100.00
65190;BME280;51777;53.570;9.984;2023-02-13T01:05:42;103547.34;;;7.37;100.00
65190;BME280;51777;53.570;9.984;2023-02-13T01:08:08;103546.44;;;7.38;100.00
65190;BME280;51777;53.570;9.984;2023-02-13T01:10:36;103544.88;;;7.34;100.00
65190;BME280;51777;53.570;9.984;2023-02-13T01:13:02;103539.94;;;7.28;100.00
65190;BME280;51777;53.570;9.984;2023-02-13T01:15:27;103544.09;;;7.32;100.00
65190;BME280;51777;53.570;9.984;2023-02-13T01:17:53;103543.41;;;7.27;100.00
65190;BME280;51777;53.570;9.984;2023-02-13T01:20:19;103534.84;;;7.26;100.00
65190;BME280;51777;53.570;9.984;2023-02-13T01:22:44;103531.50;;;7.24;100.00
65190;BME280;51777;53.570;9.984;2023-02-13T01:25:10;103538.97;;;7.32;100.00
65190;BME280;51777;53.570;9.984;2023-02-13T01:27:35;103541.41;;;7.35;100.00
65190;BME280;51777;53.570;9.984;2023-02-13T01:30:06;103541.41;;;7.35;100.00
65190;BME280;51777;53.570;9.984;2023-02-13T01:32:36;103542.25;;;7.35;100.00
65190;BME280;51777;53.570;9.984;2023-02-13T01:35:02;103537.44;;;7.26;100.00
65190;BME280;51777;53.570;9.984;2023-02-13T01:37:28;103531.25;;;7.30;100.00
65190;BME280;51777;53.570;9.984;2023-02-13T01:39:53;103533.28;;;7.22;100.00
65190;BME280;51777;53.570;9.984;2023-02-13T01:42:24;103535.03;;;7.22;100.00
65190;BME280;51777;53.570;9.984;2023-02-13T01:44:54;103523.97;;;7.18;100.00
65190;BME280;51777;53.570;9.984;2023-02-13T01:47:40;103513.81;;;7.15;100.00
65190;BME280;51777;53.570;9.984;2023-02-13T01:50:47;103513.66;;;7.20;100.00
65190;BME280;51777;53.570;9.984;2023-02-13T01:53:40;103516.84;;;7.26;100.00
65190;BME280;51777;53.570;9.984;2023-02-13T01:56:16;103517.06;;;7.20;100.00
65190;BME280;51777;53.570;9.984;2023-02-13T01:58:45;103521.47;;;7.17;100.00
65190;BME280;51777;53.570;9.984;2023-02-13T02:01:11;103511.28;;;7.14;100.00
65190;BME280;51777;53.570;9.984;2023-02-13T02:03:43;103509.34;;;7.20;100.00
65190;BME280;51777;53.570;9.984;2023-02-13T02:06:19;103510.03;;;7.25;100.00
65190;BME280;51777;53.570;9.984;2023-02-13T02:08:48;103508.94;;;7.31;100.00
65190;BME280;51777;53.570;9.984;2023-02-13T02:11:24;103510.06;;;7.24;100.00
65190;BME280;51777;53.570;9.984;2023-02-13T02:13:52;103503.97;;;7.26;100.00
65190;BME280;51777;53.570;9.984;2023-02-13T02:16:18;103500.63;;;7.24;100.00
65190;BME280;51777;53.570;9.984;2023-02-13T02:18:43;103499.94;;;7.19;100.00
65190;BME280;51777;53.570;9.984;2023-02-13T02:21:14;103497.34;;;7.19;100.00
65190;BME280;51777;53.570;9.984;2023-02-13T02:33:11;103494.75;;;7.21;100.00
65190;BME280;51777;53.570;9.984;2023-02-13T02:38:01;103499.72;;;7.25;100.00
65190;BME280;51777;53.570;9.984;2023-02-13T02:43:39;103502.75;;;7.13;100.00
65190;BME280;51777;53.570;9.984;2023-02-13T02:49:08;103498.50;;;7.12;100.00
65190;BME280;51777;53.570;9.984;2023-02-13T02:54:39;103502.56;;;7.18;100.00
65190;BME280;51777;53.570;9.984;2023-02-13T02:57:30;103491.34;;;7.20;100.00
65190;BME280;51777;53.570;9.984;2023-02-13T03:00:17;103488.19;;;7.12;100.00
65190;BME280;51777;53.570;9.984;2023-02-13T03:03:04;103487.97;;;7.18;100.00
65190;BME280;51777;53.570;9.984;2023-02-13T03:05:49;103490.44;;;7.21;100.00
65190;BME280;51777;53.570;9.984;2023-02-13T03:08:35;103489.63;;;7.19;100.00
65190;BME280;51777;53.570;9.984;2023-02-13T03:11:20;103493.09;;;7.20;100.00
65190;BME280;51777;53.570;9.984;2023-02-13T03:14:05;103502.47;;;7.21;100.00
65190;BME280;51777;53.570;9.984;2023-02-13T03:16:33;103497.41;;;7.18;100.00
65190;BME280;51777;53.570;9.984;2023-02-13T03:19:30;103491.44;;;7.17;100.00
65190;BME280;51777;53.570;9.984;2023-02-13T03:22:50;103497.00;;;7.05;100.00
65190;BME280;51777;53.570;9.984;2023-02-13T03:25:28;103498.75;;;7.04;100.00
65190;BME280;51777;53.570;9.984;2023-02-13T03:33:42;103496.09;;;7.07;100.00
65190;BME280;51777;53.570;9.984;2023-02-13T03:36:41;103502.03;;;7.10;100.00
65190;BME280;51777;53.570;9.984;2023-02-13T03:39:34;103503.00;;;7.05;100.00
65190;BME280;51777;53.570;9.984;2023-02-13T03:45:04;103503.53;;;7.15;100.00
65190;BME280;51777;53.570;9.984;2023-02-13T03:47:54;103505.31;;;7.13;100.00
65190;BME280;51777;53.570;9.984;2023-02-13T03:50:22;103509.63;;;7.13;100.00
65190;BME280;51777;53.570;9.984;2023-02-13T03:52:57;103507.25;;;7.06;100.00
65190;BME280;51777;53.570;9.984;2023-02-13T03:55:45;103506.31;;;7.09;100.00
65190;BME280;51777;53.570;9.984;2023-02-13T03:58:42;103507.03;;;7.13;100.00
65190;BME280;51777;53.570;9.984;2023-02-13T04:01:31;103501.78;;;7.16;100.00
65190;BME280;51777;53.570;9.984;2023-02-13T04:04:11;103501.66;;;7.19;100.00
65190;BME280;51777;53.570;9.984;2023-02-13T04:06:57;103500.81;;;7.20;100.00
65190;BME280;51777;53.570;9.984;2023-02-13T04:09:26;103502.50;;;7.19;100.00
65190;BME280;51777;53.570;9.984;2023-02-13T04:12:19;103511.94;;;7.20;100.00
65190;BME280;51777;53.570;9.984;2023-02-13T04:15:06;103504.03;;;7.25;100.00
65190;BME280;51777;53.570;9.984;2023-02-13T04:17:36;103509.13;;;7.26;100.00
65190;BME280;51777;53.570;9.984;2023-02-13T04:20:04;103509.34;;;7.20;100.00
65190;BME280;51777;53.570;9.984;2023-02-13T04:22:30;103512.78;;;7.21;100.00
65190;BME280;51777;53.570;9.984;2023-02-13T04:24:55;103511.97;;;7.19;100.00
65190;BME280;51777;53.570;9.984;2023-02-13T04:27:24;103514.50;;;7.20;100.00
65190;BME280;51777;53.570;9.984;2023-02-13T04:29:51;103509.44;;;7.17;100.00
65190;BME280;51777;53.570;9.984;2023-02-13T04:32:16;103504.47;;;7.13;100.00
65190;BME280;51777;53.570;9.984;2023-02-13T04:34:41;103500.88;;;7.17;100.00
65190;BME280;51777;53.570;9.984;2023-02-13T04:37:07;103499.09;;;7.19;100.00
65190;BME280;51777;53.570;9.984;2023-02-13T04:39:33;103500.69;;;7.23;100.00
65190;BME280;51777;53.570;9.984;2023-02-13T04:41:58;103499.72;;;7.25;100.00
65190;BME280;51777;53.570;9.984;2023-02-13T04:44:24;103502.28;;;7.25;100.00
65190;BME280;51777;53.570;9.984;2023-02-13T04:46:49;103502.25;;;7.27;100.00
65190;BME280;51777;53.570;9.984;2023-02-13T04:49:14;103503.00;;;7.29;100.00
65190;BME280;51777;53.570;9.984;2023-02-13T04:51:40;103503.06;;;7.27;100.00
65190;BME280;51777;53.570;9.984;2023-02-13T04:54:05;103495.28;;;7.29;100.00
65190;BME280;51777;53.570;9.984;2023-02-13T04:56:30;103506.38;;;7.31;100.00
65190;BME280;51777;53.570;9.984;2023-02-13T04:58:56;103501.34;;;7.28;100.00
65190;BME280;51777;53.570;9.984;2023-02-13T05:01:21;103507.19;;;7.31;100.00
65190;BME280;51777;53.570;9.984;2023-02-13T05:03:47;103497.78;;;7.32;100.00
65190;BME280;51777;53.570;9.984;2023-02-13T05:06:13;103501.28;;;7.29;100.00
65190;BME280;51777;53.570;9.984;2023-02-13T05:08:39;103496.91;;;7.31;100.00
65190;BME280;51777;53.570;9.984;2023-02-13T05:11:04;103503.91;;;7.28;100.00
65190;BME280;51777;53.570;9.984;2023-02-13T05:13:30;103496.88;;;7.33;100.00
65190;BME280;51777;53.570;9.984;2023-02-13T05:15:55;103495.09;;;7.35;100.00
65190;BME280;51777;53.570;9.984;2023-02-13T05:18:21;103499.34;;;7.36;100.00
65190;BME280;51777;53.570;9.984;2023-02-13T05:20:46;103500.94;;;7.39;100.00
65190;BME280;51777;53.570;9.984;2023-02-13T05:23:32;103495.81;;;7.39;100.00
65190;BME280;51777;53.570;9.984;2023-02-13T05:25:57;103494.84;;;7.41;100.00
65190;BME280;51777;53.570;9.984;2023-02-13T05:28:22;103503.47;;;7.40;100.00
65190;BME280;51777;53.570;9.984;2023-02-13T05:31:06;103501.06;;;7.35;100.00
65190;BME280;51777;53.570;9.984;2023-02-13T05:33:32;103498.44;;;7.37;100.00
65190;BME280;51777;53.570;9.984;2023-02-13T05:35:57;103505.19;;;7.40;100.00
65190;BME280;51777;53.570;9.984;2023-02-13T05:38:23;103507.66;;;7.43;100.00
65190;BME280;51777;53.570;9.984;2023-02-13T05:40:49;103510.19;;;7.44;100.00
65190;BME280;51777;53.570;9.984;2023-02-13T05:43:14;103505.81;;;7.46;100.00
65190;BME280;51777;53.570;9.984;2023-02-13T05:45:39;103512.09;;;7.39;100.00
65190;BME280;51777;53.570;9.984;2023-02-13T05:48:05;103518.00;;;7.41;100.00
65190;BME280;51777;53.570;9.984;2023-02-13T05:50:30;103508.50;;;7.43;100.00
65190;BME280;51777;53.570;9.984;2023-02-13T05:52:56;103509.28;;;7.45;100.00
65190;BME280;51777;53.570;9.984;2023-02-13T05:55:21;103509.28;;;7.45;100.00
65190;BME280;51777;53.570;9.984;2023-02-13T05:57:46;103501.78;;;7.39;100.00
65190;BME280;51777;53.570;9.984;2023-02-13T06:00:12;103505.97;;;7.42;100.00
65190;BME280;51777;53.570;9.984;2023-02-13T06:02:38;103505.13;;;7.41;100.00
65190;BME280;51777;53.570;9.984;2023-02-13T06:05:04;103518.00;;;7.41;100.00
65190;BME280;51777;53.570;9.984;2023-02-13T06:07:44;103516.56;;;7.34;100.00
65190;BME280;51777;53.570;9.984;2023-02-13T06:10:09;103519.81;;;7.39;100.00
65190;BME280;51777;53.570;9.984;2023-02-13T06:12:35;103520.63;;;7.40;100.00
65190;BME280;51777;53.570;9.984;2023-02-13T06:15:00;103520.63;;;7.40;100.00
65190;BME280;51777;53.570;9.984;2023-02-13T06:17:26;103518.00;;;7.41;100.00
65190;BME280;51777;53.570;9.984;2023-02-13T06:19:51;103526.50;;;7.43;100.00
65190;BME280;51777;53.570;9.984;2023-02-13T06:22:17;103525.78;;;7.40;100.00
65190;BME280;51777;53.570;9.984;2023-02-13T06:24:42;103528.31;;;7.41;100.00
65190;BME280;51777;53.570;9.984;2023-02-13T06:27:07;103526.75;;;7.37;100.00
65190;BME280;51777;53.570;9.984;2023-02-13T06:29:33;103525.84;;;7.38;100.00
65190;BME280;51777;53.570;9.984;2023-02-13T06:31:58;103528.38;;;7.40;100.00
65190;BME280;51777;53.570;9.984;2023-02-13T06:34:23;103528.44;;;7.38;100.00
65190;BME280;51777;53.570;9.984;2023-02-13T06:36:49;103528.38;;;7.40;100.00
65190;BME280;51777;53.570;9.984;2023-02-13T06:39:15;103534.34;;;7.40;100.00
65190;BME280;51777;53.570;9.984;2023-02-13T06:41:40;103539.38;;;7.43;100.00
65190;BME280;51777;53.570;9.984;2023-02-13T06:44:05;103541.22;;;7.40;100.00
65190;BME280;51777;53.570;9.984;2023-02-13T06:46:32;103544.19;;;7.29;100.00
65190;BME280;51777;53.570;9.984;2023-02-13T06:48:57;103549.25;;;7.32;100.00
65190;BME280;51777;53.570;9.984;2023-02-13T06:51:23;103540.78;;;7.28;100.00
65190;BME280;51777;53.570;9.984;2023-02-13T06:53:49;103553.94;;;7.21;100.00
65190;BME280;51777;53.570;9.984;2023-02-13T06:56:14;103560.91;;;7.17;100.00
65190;BME280;51777;53.570;9.984;2023-02-13T06:58:40;103554.78;;;7.21;100.00
65190;BME280;51777;53.570;9.984;2023-02-13T07:01:05;103559.13;;;7.19;100.00
65190;BME280;51777;53.570;9.984;2023-02-13T07:03:30;103564.53;;;7.12;100.00
65190;BME280;51777;53.570;9.984;2023-02-13T07:05:56;103570.47;;;7.14;100.00
65190;BME280;51777;53.570;9.984;2023-02-13T07:08:21;103571.38;;;7.13;100.00
65190;BME280;51777;53.570;9.984;2023-02-13T07:10:47;103575.44;;;7.18;100.00
65190;BME280;51777;53.570;9.984;2023-02-13T07:13:12;103573.63;;;7.22;100.00
65190;BME280;51777;53.570;9.984;2023-02-13T07:15:38;103573.28;;;7.07;100.00
65190;BME280;51777;53.570;9.984;2023-02-13T07:18:04;103571.56;;;7.06;100.00
65190;BME280;51777;53.570;9.984;2023-02-13T07:20:30;103572.38;;;7.09;100.00
65190;BME280;51777;53.570;9.984;2023-02-13T07:23:00;103572.16;;;7.15;100.00
65190;BME280;51777;53.570;9.984;2023-02-13T07:25:26;103579.09;;;7.13;100.00
65190;BME280;51777;53.570;9.984;2023-02-13T07:27:52;103568.63;;;7.17;100.00
65190;BME280;51777;53.570;9.984;2023-02-13T07:30:17;103574.72;;;7.15;100.00
65190;BME280;51777;53.570;9.984;2023-02-13T07:32:43;103562.59;;;7.18;100.00
65190;BME280;51777;53.570;9.984;2023-02-13T07:35:13;103562.50;;;7.21;100.00
65190;BME280;51777;53.570;9.984;2023-02-13T07:37:38;103567.34;;;7.29;100.00
65190;BME280;51777;53.570;9.984;2023-02-13T07:40:04;103565.56;;;7.31;100.00
65190;BME280;51777;53.570;9.984;2023-02-13T07:42:34;103570.72;;;7.31;100.00
65190;BME280;51777;53.570;9.984;2023-02-13T07:44:59;103566.69;;;7.24;100.00
65190;BME280;51777;53.570;9.984;2023-02-13T07:47:25;103573.47;;;7.26;100.00
65190;BME280;51777;53.570;9.984;2023-02-13T07:49:51;103581.84;;;7.31;100.00
65190;BME280;51777;53.570;9.984;2023-02-13T07:52:16;103586.16;;;7.31;100.00
65190;BME280;51777;53.570;9.984;2023-02-13T07:54:41;103586.25;;;7.28;100.00
65190;BME280;51777;53.570;9.984;2023-02-13T07:57:20;103591.53;;;7.25;100.00
65190;BME280;51777;53.570;9.984;2023-02-13T07:59:45;103587.22;;;7.25;100.00
65190;BME280;51777;53.570;9.984;2023-02-13T08:02:12;103581.00;;;7.31;100.00
65190;BME280;51777;53.570;9.984;2023-02-13T08:04:38;103586.78;;;7.38;100.00
65190;BME280;51777;53.570;9.984;2023-02-13T08:07:04;103595.09;;;7.46;100.00
65190;BME280;51777;53.570;9.984;2023-02-13T08:09:29;103588.72;;;7.31;100.00
65190;BME280;51777;53.570;9.984;2023-02-13T08:12:13;103594.81;;;7.28;100.00
65190;BME280;51777;53.570;9.984;2023-02-13T08:14:39;103595.84;;;7.24;100.00
65190;BME280;51777;53.570;9.984;2023-02-13T08:17:04;103599.13;;;7.28;100.00
65190;BME280;51777;53.570;9.984;2023-02-13T08:22:05;103599.84;;;7.33;100.00
65190;BME280;51777;53.570;9.984;2023-02-13T08:24:31;103599.72;;;7.36;100.00
65190;BME280;51777;53.570;9.984;2023-02-13T08:26:56;103591.81;;;7.41;100.00
65190;BME280;51777;53.570;9.984;2023-02-13T08:29:22;103598.50;;;7.46;100.00
65190;BME280;51777;53.570;9.984;2023-02-13T08:31:47;103592.34;;;7.50;100.00
65190;BME280;51777;53.570;9.984;2023-02-13T08:34:13;103588.09;;;7.49;100.00
65190;BME280;51777;53.570;9.984;2023-02-13T08:36:38;103588.97;;;7.48;100.00
65190;BME280;51777;53.570;9.984;2023-02-13T08:39:04;103579.53;;;7.49;100.00
65190;BME280;51777;53.570;9.984;2023-02-13T08:41:29;103585.25;;;7.57;100.00
65190;BME280;51777;53.570;9.984;2023-02-13T08:43:55;103591.88;;;7.62;100.00
65190;BME280;51777;53.570;9.984;2023-02-13T08:46:20;103596.81;;;7.69;100.00
65190;BME280;51777;53.570;9.984;2023-02-13T08:48:45;103600.13;;;7.72;100.00
65190;BME280;51777;53.570;9.984;2023-02-13T08:51:12;103599.94;;;7.77;100.00
65190;BME280;51777;53.570;9.984;2023-02-13T08:53:39;103598.16;;;7.79;100.00
65190;BME280;51777;53.570;9.984;2023-02-13T08:56:05;103598.06;;;7.82;100.00
65190;BME280;51777;53.570;9.984;2023-02-13T08:58:31;103601.47;;;7.82;100.00
65190;BME280;51777;53.570;9.984;2023-02-13T09:00:56;103601.28;;;7.87;100.00
65190;BME280;51777;53.570;9.984;2023-02-13T09:03:22;103597.75;;;7.89;100.00
65190;BME280;51777;53.570;9.984;2023-02-13T09:05:47;103598.53;;;7.91;100.00
65190;BME280;51777;53.570;9.984;2023-02-13T09:08:13;103597.59;;;7.94;100.00
65190;BME280;51777;53.570;9.984;2023-02-13T09:10:40;103601.88;;;7.93;100.00
65190;BME280;51777;53.570;9.984;2023-02-13T09:13:08;103606.09;;;7.96;100.00
65190;BME280;51777;53.570;9.984;2023-02-13T09:15:37;103602.69;;;7.95;100.00
65190;BME280;51777;53.570;9.984;2023-02-13T09:18:02;103606.03;;;7.98;100.00
65190;BME280;51777;53.570;9.984;2023-02-13T09:20:28;103610.22;;;8.00;100.00
65190;BME280;51777;53.570;9.984;2023-02-13T09:22:54;103610.47;;;7.94;100.00
65190;BME280;51777;53.570;9.984;2023-02-13T09:25:20;103607.78;;;7.97;100.00
65190;BME280;51777;53.570;9.984;2023-02-13T09:27:46;103608.00;;;7.91;100.00
65190;BME280;51777;53.570;9.984;2023-02-13T09:30:12;103608.06;;;7.89;100.00
65190;BME280;51777;53.570;9.984;2023-02-13T09:32:43;103607.91;;;7.94;100.00
65190;BME280;51777;53.570;9.984;2023-02-13T09:35:08;103602.97;;;7.88;100.00
65190;BME280;51777;53.570;9.984;2023-02-13T09:37:34;103601.28;;;7.87;100.00
65190;BME280;51777;53.570;9.984;2023-02-13T09:39:59;103600.44;;;7.86;100.00
65190;BME280;51777;53.570;9.984;2023-02-13T09:42:28;103608.91;;;7.90;100.00
65190;BME280;51777;53.570;9.984;2023-02-13T09:44:59;103605.97;;;7.99;100.00
65190;BME280;51777;53.570;9.984;2023-02-13T09:47:30;103604.94;;;8.03;100.00
65190;BME280;51777;53.570;9.984;2023-02-13T09:50:02;103608.94;;;8.12;100.00
65190;BME280;51777;53.570;9.984;2023-02-13T09:52:32;103606.34;;;8.12;100.00
65190;BME280;51777;53.570;9.984;2023-02-13T09:54:58;103608.25;;;7.85;100.00
65190;BME280;51777;53.570;9.984;2023-02-13T09:57:32;103608.00;;;7.91;100.00
65190;BME280;51777;53.570;9.984;2023-02-13T10:00:19;103607.72;;;7.99;100.00
65190;BME280;51777;53.570;9.984;2023-02-13T10:02:55;103603.84;;;8.10;100.00
65190;BME280;51777;53.570;9.984;2023-02-13T10:16:48;103598.81;;;8.07;100.00
65190;BME280;51777;53.570;9.984;2023-02-13T10:21:50;103597.78;;;8.11;100.00
65190;BME280;51777;53.570;9.984;2023-02-13T10:27:17;103600.66;;;8.25;100.00
65190;BME280;51777;53.570;9.984;2023-02-13T10:38:42;103595.84;;;8.16;100.00
65190;BME280;51777;53.570;9.984;2023-02-13T10:41:49;103598.91;;;8.26;100.00
65190;BME280;51777;53.570;9.984;2023-02-13T10:47:09;103590.53;;;8.43;100.00
65190;BME280;51777;53.570;9.984;2023-02-13T10:49:45;103593.53;;;8.54;100.00
65190;BME280;51777;53.570;9.984;2023-02-13T10:52:31;103593.53;;;8.54;100.00
65190;BME280;51777;53.570;9.984;2023-02-13T10:55:08;103598.94;;;8.48;100.00
65190;BME280;51777;53.570;9.984;2023-02-13T11:03:24;103591.16;;;8.49;100.00
65190;BME280;51777;53.570;9.984;2023-02-13T11:05:52;103589.00;;;8.39;100.00
65190;BME280;51777;53.570;9.984;2023-02-13T11:08:38;103581.66;;;8.28;100.00
65190;BME280;51777;53.570;9.984;2023-02-13T11:11:28;103591.69;;;8.36;100.00
65190;BME280;51777;53.570;9.984;2023-02-13T11:14:18;103588.31;;;8.34;100.00
65190;BME280;51777;53.570;9.984;2023-02-13T11:21:47;103575.31;;;8.59;100.00
65190;BME280;51777;53.570;9.984;2023-02-13T11:24:32;103588.84;;;8.64;100.00
65190;BME280;51777;53.570;9.984;2023-02-13T11:27:04;103589.81;;;8.61;100.00
65190;BME280;51777;53.570;9.984;2023-02-13T11:29:36;103583.50;;;8.68;100.00
65190;BME280;51777;53.570;9.984;2023-02-13T11:32:26;103576.00;;;8.62;100.00
65190;BME280;51777;53.570;9.984;2023-02-13T11:34:53;103574.63;;;8.53;100.00
65190;BME280;51777;53.570;9.984;2023-02-13T11:37:22;103566.25;;;8.48;100.00
65190;BME280;51777;53.570;9.984;2023-02-13T11:39:54;103566.69;;;8.38;100.00
65190;BME280;51777;53.570;9.984;2023-02-13T11:42:59;103568.91;;;8.47;100.00
65190;BME280;51777;53.570;9.984;2023-02-13T11:45:22;103564.22;;;8.57;100.00
65190;BME280;51777;53.570;9.984;2023-02-13T11:47:49;103566.47;;;8.44;100.00
65190;BME280;51777;53.570;9.984;2023-02-13T11:50:33;103573.97;;;8.27;100.00
65190;BME280;51777;53.570;9.984;2023-02-13T11:53:01;103577.66;;;8.21;100.00
65190;BME280;51777;53.570;9.984;2023-02-13T11:55:30;103576.50;;;8.28;100.00
65190;BME280;51777;53.570;9.984;2023-02-13T11:58:31;103577.06;;;8.36;100.00
65190;BME280;51777;53.570;9.984;2023-02-13T12:00:49;103572.00;;;8.55;100.00
65190;BME280;51777;53.570;9.984;2023-02-13T12:03:31;103564.25;;;8.55;100.00
65190;BME280;51777;53.570;9.984;2023-02-13T12:06:10;103565.16;;;8.54;100.00
65190;BME280;51777;53.570;9.984;2023-02-13T12:08:46;103557.19;;;8.60;100.00
65190;BME280;51777;53.570;9.984;2023-02-13T12:14:03;103544.69;;;8.71;100.00
65190;BME280;51777;53.570;9.984;2023-02-13T12:16:38;103555.72;;;8.75;100.00
65190;BME280;51777;53.570;9.984;2023-02-13T12:19:11;103557.88;;;8.64;100.00
65190;BME280;51777;53.570;9.984;2023-02-13T12:24:45;103550.22;;;8.62;100.00
65190;BME280;51777;53.570;9.984;2023-02-13T12:38:11;103548.91;;;8.52;100.00
65190;BME280;51777;53.570;9.984;2023-02-13T12:49:06;103553.16;;;8.53;100.00
65190;BME280;51777;53.570;9.984;2023-02-13T13:14:08;103537.31;;;8.62;100.00
65190;BME280;51777;53.570;9.984;2023-02-13T13:19:49;103532.25;;;8.81;100.00
65190;BME280;51777;53.570;9.984;2023-02-13T13:22:32;103536.50;;;8.82;100.00
65190;BME280;51777;53.570;9.984;2023-02-13T13:27:52;103544.03;;;8.87;100.00
65190;BME280;51777;53.570;9.984;2023-02-13T13:30:28;103535.59;;;8.83;100.00
65190;BME280;51777;53.570;9.984;2023-02-13T13:32:59;103533.03;;;8.83;100.00
65190;BME280;51777;53.570;9.984;2023-02-13T13:35:26;103531.13;;;8.87;100.00
65190;BME280;51777;53.570;9.984;2023-02-13T13:38:16;103535.91;;;8.75;100.00
65190;BME280;51777;53.570;9.984;2023-02-13T13:51:08;103515.19;;;8.77;100.00
65190;BME280;51777;53.570;9.984;2023-02-13T13:56:24;103502.97;;;8.82;100.00
65190;BME280;51777;53.570;9.984;2023-02-13T13:58:50;103506.38;;;8.82;100.00
65190;BME280;51777;53.570;9.984;2023-02-13T14:01:18;103512.63;;;8.77;100.00
65190;BME280;51777;53.570;9.984;2023-02-13T14:03:51;103518.38;;;8.63;100.00
65190;BME280;51777;53.570;9.984;2023-02-13T14:06:26;103511.16;;;8.51;100.00
65190;BME280;51777;53.570;9.984;2023-02-13T14:09:04;103517.00;;;8.54;100.00
65190;BME280;51777;53.570;9.984;2023-02-13T14:11:34;103521.47;;;8.51;100.00
65190;BME280;51777;53.570;9.984;2023-02-13T14:16:53;103517.28;;;8.48;100.00
65190;BME280;51777;53.570;9.984;2023-02-13T14:19:34;103520.50;;;8.53;100.00
65190;BME280;51777;53.570;9.984;2023-02-13T14:25:00;103520.19;;;8.61;100.00
65190;BME280;51777;53.570;9.984;2023-02-13T14:29:56;103520.81;;;8.66;100.00
65190;BME280;51777;53.570;9.984;2023-02-13T14:32:35;103520.25;;;8.60;100.00
65190;BME280;51777;53.570;9.984;2023-02-13T14:35:26;103511.75;;;8.58;100.00
65190;BME280;51777;53.570;9.984;2023-02-13T14:37:57;103515.03;;;8.61;100.00
65190;BME280;51777;53.570;9.984;2023-02-13T14:40:31;103515.94;;;8.60;100.00
65190;BME280;51777;53.570;9.984;2023-02-13T14:43:27;103514.50;;;8.53;100.00
65190;BME280;51777;53.570;9.984;2023-02-13T14:45:56;103514.50;;;8.53;100.00
65190;BME280;51777;53.570;9.984;2023-02-13T14:48:40;103517.97;;;8.52;100.00
65190;BME280;51777;53.570;9.984;2023-02-13T14:51:16;103520.34;;;8.36;100.00
65190;BME280;51777;53.570;9.984;2023-02-13T14:53:51;103520.06;;;8.44;100.00
65190;BME280;51777;53.570;9.984;2023-02-13T14:56:20;103520.16;;;8.41;100.00
65190;BME280;51777;53.570;9.984;2023-02-13T14:59:10;103514.16;;;8.40;100.00
65190;BME280;51777;53.570;9.984;2023-02-13T15:01:47;103508.09;;;8.41;100.00
65190;BME280;51777;53.570;9.984;2023-02-13T15:06:46;103507.22;;;8.20;100.00
65190;BME280;51777;53.570;9.984;2023-02-13T15:11:50;103500.13;;;8.25;100.00
65190;BME280;51777;53.570;9.984;2023-02-13T15:14:21;103498.38;;;8.26;100.00
65190;BME280;51777;53.570;9.984;2023-02-13T15:16:51;103503.75;;;8.21;100.00
65190;BME280;51777;53.570;9.984;2023-02-13T15:19:20;103498.69;;;8.18;100.00
65190;BME280;51777;53.570;9.984;2023-02-13T15:21:50;103496.84;;;8.22;100.00
65190;BME280;51777;53.570;9.984;2023-02-13T15:24:16;103491.69;;;8.22;100.00
65190;BME280;51777;53.570;9.984;2023-02-13T15:26:42;103503.81;;;8.20;100.00
65190;BME280;51777;53.570;9.984;2023-02-13T15:29:18;103504.81;;;8.16;100.00
65190;BME280;51777;53.570;9.984;2023-02-13T15:31:44;103501.34;;;8.17;100.00
65190;BME280;51777;53.570;9.984;2023-02-13T15:34:30;103500.63;;;8.13;100.00
65190;BME280;51777;53.570;9.984;2023-02-13T15:37:01;103499.84;;;8.11;100.00
65190;BME280;51777;53.570;9.984;2023-02-13T15:39:31;103494.69;;;8.11;100.00